createdAt,value
2023-04-12T00:02:22.140Z,3.10
2023-04-12T00:04:55.619Z,3.60
2023-04-12T00:07:24.227Z,3.00
2023-04-12T00:09:51.709Z,3.30
2023-04-12T00:12:19.349Z,2.90
2023-04-12T00:14:47.460Z,2.70
2023-04-12T00:17:14.639Z,2.30
2023-04-12T00:19:44.858Z,2.50
2023-04-12T00:22:12.317Z,2.60
2023-04-12T00:24:43.376Z,3.07
2023-04-12T00:27:10.440Z,2.90
2023-04-12T00:29:37.816Z,2.83
2023-04-12T00:32:05.999Z,2.43
2023-04-12T00:34:33.006Z,3.17
2023-04-12T00:37:01.269Z,2.90
2023-04-12T00:39:28.123Z,3.17
2023-04-12T00:41:57.176Z,3.00
2023-04-12T00:44:24.252Z,2.40
2023-04-12T00:46:51.458Z,2.73
2023-04-12T00:49:18.417Z,2.50
2023-04-12T00:51:45.521Z,2.73
2023-04-12T00:54:14.407Z,2.73
2023-04-12T00:56:41.484Z,2.40
2023-04-12T00:59:08.634Z,3.20
2023-04-12T01:01:35.487Z,2.50
2023-04-12T01:04:04.726Z,3.00
2023-04-12T01:06:47.230Z,3.17
2023-04-12T01:09:51.501Z,2.57
2023-04-12T01:12:33.433Z,2.57
2023-04-12T01:15:09.735Z,3.10
2023-04-12T01:17:46.007Z,3.33
2023-04-12T01:20:19.661Z,3.70
2023-04-12T01:23:17.960Z,3.80
2023-04-12T01:25:47.734Z,3.80
2023-04-12T01:28:17.913Z,4.20
2023-04-12T01:30:46.588Z,3.60
2023-04-12T01:33:16.142Z,3.30
2023-04-12T01:35:44.167Z,3.53
2023-04-12T01:38:11.328Z,3.50
2023-04-12T01:40:40.816Z,3.63
2023-04-12T01:43:13.519Z,2.90
2023-04-12T01:45:40.757Z,4.60
2023-04-12T01:48:12.249Z,4.00
2023-04-12T01:50:55.218Z,4.73
2023-04-12T01:53:48.167Z,3.93
2023-04-12T01:56:18.026Z,5.93
2023-04-12T01:58:48.012Z,4.50
2023-04-12T02:01:16.847Z,4.60
2023-04-12T02:03:44.327Z,3.70
2023-04-12T02:06:12.013Z,3.60
2023-04-12T02:08:39.188Z,4.13
2023-04-12T02:11:12.799Z,4.53
2023-04-12T02:13:39.940Z,3.77
2023-04-12T02:16:08.003Z,4.53
2023-04-12T02:18:38.005Z,4.20
2023-04-12T02:21:05.092Z,4.03
2023-04-12T02:23:31.960Z,3.53
2023-04-12T02:25:58.986Z,4.00
2023-04-12T02:28:25.939Z,5.50
2023-04-12T02:30:53.612Z,4.67
2023-04-12T02:33:25.503Z,3.40
2023-04-12T02:35:52.555Z,3.47
2023-04-12T02:38:20.096Z,4.60
2023-04-12T02:40:46.913Z,4.47
2023-04-12T02:43:13.760Z,4.30
2023-04-12T02:45:41.000Z,4.37
2023-04-12T02:48:08.534Z,4.27
2023-04-12T02:50:36.923Z,4.10
2023-04-12T02:53:03.939Z,4.50
2023-04-12T02:55:31.026Z,4.13
2023-04-12T02:57:58.282Z,3.90
2023-04-12T03:00:25.275Z,4.60
2023-04-12T03:02:52.422Z,4.90
2023-04-12T03:05:20.110Z,5.03
2023-04-12T03:07:46.978Z,4.77
2023-04-12T03:10:13.624Z,5.10
2023-04-12T03:12:41.146Z,3.83
2023-04-12T03:15:08.699Z,3.57
2023-04-12T03:17:35.466Z,3.40
2023-04-12T03:20:10.476Z,3.00
2023-04-12T03:22:38.348Z,2.90
2023-04-12T03:25:05.656Z,3.20
2023-04-12T03:27:32.782Z,3.00
2023-04-12T03:30:00.012Z,2.93
2023-04-12T03:32:26.784Z,3.10
2023-04-12T03:34:53.595Z,2.60
2023-04-12T03:37:20.270Z,3.10
2023-04-12T03:39:48.186Z,2.43
2023-04-12T03:42:29.334Z,3.43
2023-04-12T03:44:58.852Z,2.77
2023-04-12T03:47:25.780Z,2.47
2023-04-12T03:50:10.390Z,2.47
2023-04-12T03:52:38.997Z,2.77
2023-04-12T03:55:07.355Z,3.43
2023-04-12T03:57:34.650Z,2.70
2023-04-12T04:00:02.638Z,3.00
2023-04-12T04:02:32.247Z,3.20
2023-04-12T04:04:59.276Z,3.10
2023-04-12T04:07:26.315Z,3.37
2023-04-12T04:09:54.593Z,2.93
2023-04-12T04:12:21.402Z,3.37
2023-04-12T04:14:48.061Z,2.60
2023-04-12T04:17:14.884Z,3.00
2023-04-12T04:19:41.667Z,3.00
2023-04-12T04:22:09.992Z,2.97
2023-04-12T04:24:38.983Z,3.20
2023-04-12T04:27:06.371Z,2.90
2023-04-12T04:29:33.744Z,2.90
2023-04-12T04:32:01.457Z,3.03
2023-04-12T04:34:28.714Z,2.47
2023-04-12T04:36:55.350Z,2.90
2023-04-12T04:39:22.782Z,3.13
2023-04-12T04:41:55.166Z,3.03
2023-04-12T04:44:22.466Z,2.67
2023-04-12T04:46:49.188Z,2.50
2023-04-12T04:49:16.377Z,2.43
2023-04-12T04:51:43.231Z,3.03
2023-04-12T04:54:10.383Z,2.63
2023-04-12T04:56:37.169Z,2.30
2023-04-12T04:59:03.903Z,3.37
2023-04-12T05:01:32.047Z,2.50
2023-04-12T05:03:59.369Z,2.50
2023-04-12T05:06:27.276Z,2.63
2023-04-12T05:08:54.313Z,2.70
2023-04-12T05:11:21.300Z,3.23
2023-04-12T05:13:48.036Z,2.80
2023-04-12T05:16:14.805Z,2.50
2023-04-12T05:18:41.558Z,2.87
2023-04-12T05:21:11.304Z,2.53
2023-04-12T05:23:43.376Z,3.07
2023-04-12T05:26:10.472Z,2.73
2023-04-12T05:28:37.484Z,2.70
2023-04-12T05:31:05.385Z,3.33
2023-04-12T05:33:34.763Z,2.90
2023-04-12T05:36:01.627Z,3.10
2023-04-12T05:38:28.584Z,3.07
2023-04-12T05:40:55.350Z,3.47
2023-04-12T05:43:22.058Z,3.50
2023-04-12T05:45:51.213Z,3.13
2023-04-12T05:48:19.210Z,3.17
2023-04-12T05:50:53.417Z,3.50
2023-04-12T05:53:21.093Z,3.80
2023-04-12T05:55:48.055Z,3.77
2023-04-12T05:58:15.525Z,3.37
2023-04-12T06:00:42.538Z,3.10
2023-04-12T06:03:11.890Z,3.70
2023-04-12T06:06:16.848Z,3.10
2023-04-12T06:09:04.339Z,4.00
2023-04-12T06:11:35.676Z,3.40
2023-04-12T06:14:02.449Z,4.30
2023-04-12T06:16:29.529Z,4.13
2023-04-12T06:18:57.496Z,3.90
2023-04-12T06:21:24.859Z,3.57
2023-04-12T06:23:52.329Z,3.80
2023-04-12T06:26:19.209Z,5.20
2023-04-12T06:28:45.972Z,5.97
2023-04-12T06:31:13.206Z,5.07
2023-04-12T06:33:40.314Z,5.60
2023-04-12T06:36:07.633Z,5.27
2023-04-12T06:38:34.377Z,5.77
2023-04-12T06:41:01.129Z,5.07
2023-04-12T06:43:27.780Z,4.70
2023-04-12T06:45:56.829Z,5.50
2023-04-12T06:48:23.683Z,4.97
2023-04-12T06:50:50.675Z,5.00
2023-04-12T06:53:17.464Z,5.47
2023-04-12T06:55:44.503Z,5.00
2023-04-12T06:58:11.518Z,4.90
2023-04-12T07:00:38.772Z,6.07
2023-04-12T07:03:05.743Z,5.10
2023-04-12T07:05:32.499Z,5.80
2023-04-12T07:07:59.190Z,5.47
2023-04-12T07:10:26.060Z,5.57
2023-04-12T07:12:53.150Z,5.60
2023-04-12T07:15:19.938Z,5.53
2023-04-12T07:17:46.631Z,5.67
2023-04-12T07:20:13.856Z,5.33
2023-04-12T07:22:41.049Z,4.77
2023-04-12T07:25:10.746Z,5.60
2023-04-12T07:27:37.945Z,5.00
2023-04-12T07:30:05.041Z,5.10
2023-04-12T07:32:31.894Z,5.50
2023-04-12T07:34:58.653Z,5.60
2023-04-12T07:37:25.515Z,5.10
2023-04-12T07:39:52.859Z,5.10
2023-04-12T07:42:19.888Z,5.43
2023-04-12T07:44:46.540Z,5.90
2023-04-12T07:47:13.282Z,5.07
2023-04-12T07:49:40.062Z,4.97
2023-04-12T07:52:07.322Z,4.40
2023-04-12T07:54:34.833Z,4.80
2023-04-12T07:57:03.446Z,5.50
2023-04-12T07:59:31.646Z,4.87
2023-04-12T08:01:58.853Z,5.00
2023-04-12T08:04:25.872Z,5.30
2023-04-12T08:06:52.621Z,5.10
2023-04-12T08:09:20.099Z,5.77
2023-04-12T08:11:47.685Z,5.40
2023-04-12T08:14:15.669Z,5.70
2023-04-12T08:16:42.412Z,5.90
2023-04-12T08:19:09.239Z,5.87
2023-04-12T08:21:36.402Z,6.43
2023-04-12T08:24:03.200Z,6.23
2023-04-12T08:26:30.665Z,6.10
2023-04-12T08:28:58.592Z,6.23
2023-04-12T08:31:25.628Z,6.33
2023-04-12T08:33:52.423Z,7.20
2023-04-12T08:36:19.219Z,6.33
2023-04-12T08:38:46.748Z,5.53
2023-04-12T08:41:16.438Z,7.47
2023-04-12T08:43:46.355Z,5.80
2023-04-12T08:46:17.719Z,5.60
2023-04-12T08:48:46.456Z,5.67
2023-04-12T08:51:18.274Z,6.03
2023-04-12T08:53:45.140Z,5.70
2023-04-12T08:56:13.355Z,6.33
2023-04-12T08:58:45.538Z,6.40
2023-04-12T09:01:15.874Z,6.00
2023-04-12T09:03:44.639Z,5.93
2023-04-12T09:06:15.864Z,6.47
2023-04-12T09:08:56.302Z,6.10
2023-04-12T09:11:28.148Z,5.90
2023-04-12T09:13:55.866Z,5.87
2023-04-12T09:16:36.386Z,5.40
2023-04-12T09:19:04.027Z,6.00
2023-04-12T09:21:35.399Z,5.03
2023-04-12T09:24:12.323Z,6.70
2023-04-12T09:26:40.895Z,6.43
2023-04-12T09:29:25.539Z,6.17
2023-04-12T09:32:25.575Z,6.83
2023-04-12T09:35:01.188Z,6.53
2023-04-12T09:37:28.162Z,6.50
2023-04-12T09:40:04.477Z,5.47
2023-04-12T09:42:35.893Z,4.83
2023-04-12T09:45:22.740Z,4.80
2023-04-12T09:47:49.928Z,4.23
2023-04-12T09:50:21.182Z,4.60
2023-04-12T09:52:48.425Z,4.50
2023-04-12T09:55:16.588Z,4.60
2023-04-12T09:57:44.861Z,5.93
2023-04-12T10:00:20.239Z,6.90
2023-04-12T10:02:52.943Z,3.30
2023-04-12T10:05:23.692Z,3.40
2023-04-12T10:07:51.548Z,3.17
2023-04-12T10:10:19.799Z,2.50
2023-04-12T10:12:48.551Z,2.20
2023-04-12T10:15:21.519Z,2.07
2023-04-12T10:17:51.732Z,2.40
2023-04-12T10:20:20.715Z,2.10
2023-04-12T10:22:52.763Z,2.60
2023-04-12T10:25:25.838Z,2.93
2023-04-12T10:27:53.574Z,2.47
2023-04-12T10:30:31.220Z,2.90
2023-04-12T10:33:19.187Z,2.10
2023-04-12T10:35:57.125Z,2.30
2023-04-12T10:38:28.328Z,2.20
2023-04-12T10:41:13.673Z,2.30
2023-04-12T10:43:45.921Z,2.30
2023-04-12T10:46:45.527Z,2.37
2023-04-12T10:49:16.629Z,2.83
2023-04-12T10:52:09.612Z,3.00
2023-04-12T10:54:36.868Z,2.90
2023-04-12T10:57:04.752Z,3.20
2023-04-12T10:59:51.643Z,3.07
2023-04-12T11:02:18.906Z,2.47
2023-04-12T11:05:09.856Z,3.00
2023-04-12T11:07:44.851Z,3.37
2023-04-12T11:10:16.596Z,2.63
2023-04-12T11:12:51.400Z,2.30
2023-04-12T11:15:18.551Z,2.60
2023-04-12T11:17:57.454Z,2.73
2023-04-12T11:20:27.256Z,2.47
2023-04-12T11:22:56.312Z,3.10
2023-04-12T11:25:33.462Z,2.70
2023-04-12T11:28:02.699Z,3.43
2023-04-12T11:30:32.097Z,2.27
2023-04-12T11:33:00.617Z,2.90
2023-04-12T11:35:30.560Z,2.73
2023-04-12T11:37:59.261Z,3.00
2023-04-12T11:40:26.720Z,3.87
2023-04-12T11:42:57.379Z,2.60
2023-04-12T11:45:29.661Z,3.00
2023-04-12T11:47:58.459Z,2.70
2023-04-12T11:50:31.866Z,2.60
2023-04-12T11:53:11.757Z,2.40
2023-04-12T11:55:39.434Z,3.10
2023-04-12T11:58:08.088Z,3.17
2023-04-12T12:00:36.435Z,3.80
2023-04-12T12:03:08.503Z,3.43
2023-04-12T12:05:41.432Z,2.73
2023-04-12T12:08:10.699Z,2.50
2023-04-12T12:10:52.321Z,2.27
2023-04-12T12:13:29.296Z,2.47
2023-04-12T12:16:20.436Z,2.57
2023-04-12T12:18:58.978Z,2.80
2023-04-12T12:21:28.467Z,2.50
2023-04-12T12:23:57.795Z,2.27
2023-04-12T12:26:28.640Z,3.00
2023-04-12T12:29:00.990Z,2.27
2023-04-12T12:31:31.220Z,2.80
2023-04-12T12:34:04.235Z,2.70
2023-04-12T12:36:36.805Z,2.90
2023-04-12T12:39:12.039Z,2.77
2023-04-12T12:41:41.311Z,3.83
2023-04-12T12:44:11.148Z,2.80
2023-04-12T12:49:11.461Z,3.47
2023-04-12T12:51:39.660Z,3.43
2023-04-12T12:54:08.497Z,2.93
2023-04-12T12:56:35.933Z,3.50
2023-04-12T12:59:04.241Z,3.13
2023-04-12T13:01:32.048Z,2.83
2023-04-12T13:04:00.777Z,2.80
2023-04-12T13:06:28.503Z,3.30
2023-04-12T13:08:56.039Z,3.20
2023-04-12T13:11:28.736Z,3.23
2023-04-12T13:13:57.454Z,3.20
2023-04-12T13:16:26.824Z,3.90
2023-04-12T13:18:56.040Z,3.97
2023-04-12T13:21:23.933Z,3.40
2023-04-12T13:23:51.324Z,4.00
2023-04-12T13:26:20.088Z,4.67
2023-04-12T13:28:47.379Z,4.40
2023-04-12T13:31:16.377Z,4.37
2023-04-12T13:33:44.552Z,4.27
2023-04-12T13:36:15.668Z,5.23
2023-04-12T13:38:44.744Z,4.90
2023-04-12T13:41:12.105Z,4.53
2023-04-12T13:43:41.077Z,5.20
2023-04-12T13:46:09.342Z,5.23
2023-04-12T13:48:37.466Z,4.90
2023-04-12T13:51:04.969Z,4.57
2023-04-12T13:53:32.521Z,4.40
2023-04-12T13:56:00.156Z,4.20
2023-04-12T13:58:27.393Z,3.90
2023-04-12T14:00:57.840Z,3.73
2023-04-12T14:03:25.234Z,4.13
2023-04-12T14:05:53.194Z,3.87
2023-04-12T14:08:20.815Z,4.07
2023-04-12T14:10:48.920Z,3.30
2023-04-12T14:13:17.631Z,4.17
2023-04-12T14:15:46.774Z,4.17
2023-04-12T14:18:14.917Z,4.20
2023-04-12T14:20:42.193Z,3.60
2023-04-12T14:23:10.503Z,3.70
2023-04-12T14:25:41.398Z,3.60
2023-04-12T14:28:10.369Z,4.20
2023-04-12T14:30:37.648Z,4.67
2023-04-12T14:33:06.632Z,4.87
2023-04-12T14:35:36.449Z,4.60
2023-04-12T14:38:08.920Z,4.83
2023-04-12T14:40:36.844Z,4.80
2023-04-12T14:43:05.588Z,4.50
2023-04-12T14:45:35.093Z,4.50
2023-04-12T14:48:02.400Z,5.27
2023-04-12T14:50:31.263Z,4.63
2023-04-12T14:52:58.824Z,4.70
2023-04-12T14:55:27.511Z,4.33
2023-04-12T14:57:55.591Z,4.10
2023-04-12T15:00:27.635Z,4.70
2023-04-12T15:02:55.828Z,4.33
2023-04-12T15:05:24.470Z,3.73
2023-04-12T15:10:20.603Z,4.60
2023-04-12T15:12:47.782Z,3.77
2023-04-12T15:15:15.800Z,3.20
2023-04-12T15:17:42.950Z,2.87
2023-04-12T15:20:11.438Z,3.40
2023-04-12T15:22:40.035Z,2.97
2023-04-12T15:25:07.779Z,3.43
2023-04-12T15:27:34.951Z,2.70
2023-04-12T15:30:02.266Z,2.90
2023-04-12T15:32:29.762Z,2.97
2023-04-12T15:34:56.834Z,2.63
2023-04-12T15:37:24.128Z,2.30
2023-04-12T15:39:51.109Z,3.27
2023-04-12T15:42:18.060Z,2.43
2023-04-12T15:44:45.705Z,2.30
2023-04-12T15:47:12.850Z,2.67
2023-04-12T15:49:40.522Z,2.20
2023-04-12T15:52:07.958Z,2.57
2023-04-12T15:54:35.181Z,2.40
2023-04-12T15:57:09.516Z,2.50
2023-04-12T15:59:39.679Z,2.50
2023-04-12T16:02:09.745Z,2.10
2023-04-12T16:04:38.204Z,2.00
2023-04-12T16:07:05.630Z,2.10
2023-04-12T16:09:32.833Z,2.37
2023-04-12T16:12:03.524Z,2.27
2023-04-12T16:14:31.099Z,1.90
2023-04-12T16:16:59.236Z,2.10
2023-04-12T16:19:26.120Z,1.90
2023-04-12T16:21:53.061Z,2.10
2023-04-12T16:24:19.928Z,2.00
2023-04-12T16:26:48.243Z,2.10
2023-04-12T16:29:15.606Z,2.00
2023-04-12T16:31:42.564Z,2.13
2023-04-12T16:34:10.061Z,1.90
2023-04-12T16:36:37.570Z,2.50
2023-04-12T16:39:06.547Z,2.00
2023-04-12T16:41:33.610Z,2.87
2023-04-12T16:44:03.249Z,2.60
2023-04-12T16:46:30.338Z,2.30
2023-04-12T16:48:59.508Z,1.70
2023-04-12T16:51:27.568Z,1.50
2023-04-12T16:54:04.677Z,1.70
2023-04-12T16:56:32.070Z,1.97
2023-04-12T16:59:00.464Z,2.10
2023-04-12T17:01:27.417Z,2.70
2023-04-12T17:03:54.655Z,2.00
2023-04-12T17:06:21.755Z,2.00
2023-04-12T17:08:49.065Z,1.63
2023-04-12T17:11:16.255Z,1.70
2023-04-12T17:13:44.702Z,1.70
2023-04-12T17:16:12.024Z,1.60
2023-04-12T17:18:41.215Z,1.93
2023-04-12T17:21:09.883Z,1.80
2023-04-12T17:23:37.777Z,1.77
2023-04-12T17:26:08.847Z,1.80
2023-04-12T17:28:39.133Z,1.87
2023-04-12T17:31:06.603Z,1.90
2023-04-12T17:33:33.784Z,1.90
2023-04-12T17:36:02.046Z,2.00
2023-04-12T17:38:29.563Z,1.80
2023-04-12T17:40:56.589Z,2.20
2023-04-12T17:43:23.553Z,2.30
2023-04-12T17:45:50.743Z,2.10
2023-04-12T17:48:17.588Z,2.63
2023-04-12T17:50:47.222Z,2.00
2023-04-12T17:53:14.197Z,2.27
2023-04-12T17:55:41.813Z,2.00
2023-04-12T17:58:08.869Z,2.20
2023-04-12T18:00:35.814Z,1.90
2023-04-12T18:03:03.063Z,1.93
2023-04-12T18:05:30.092Z,2.10
2023-04-12T18:07:57.085Z,2.10
2023-04-12T18:10:26.398Z,2.37
2023-04-12T18:12:54.037Z,2.40
2023-04-12T18:15:21.630Z,1.97
2023-04-12T18:17:48.542Z,1.80
2023-04-12T18:20:16.592Z,2.30
2023-04-12T18:22:44.718Z,2.30
2023-04-12T18:25:12.399Z,2.30
2023-04-12T18:27:39.330Z,1.70
2023-04-12T18:30:07.651Z,2.50
2023-04-12T18:32:34.564Z,2.10
2023-04-12T18:35:02.478Z,2.40
2023-04-12T18:37:29.384Z,2.23
2023-04-12T18:39:56.290Z,2.20
2023-04-12T18:42:23.222Z,2.27
2023-04-12T18:44:51.041Z,2.50
2023-04-12T18:47:18.504Z,2.33
2023-04-12T18:49:45.851Z,2.53
2023-04-12T18:52:12.741Z,3.07
2023-04-12T18:54:39.659Z,2.93
2023-04-12T18:57:06.953Z,2.80
2023-04-12T18:59:34.046Z,2.60
2023-04-12T19:02:01.257Z,3.50
2023-04-12T19:04:28.308Z,3.40
2023-04-12T19:06:56.451Z,3.00
2023-04-12T19:09:23.327Z,3.60
2023-04-12T19:11:50.310Z,2.90
2023-04-12T19:14:17.506Z,2.77
2023-04-12T19:16:44.472Z,3.07
2023-04-12T19:19:11.471Z,3.10
2023-04-12T19:21:38.265Z,3.13
2023-04-12T19:24:05.426Z,2.57
2023-04-12T19:26:32.535Z,3.40
2023-04-12T19:28:59.360Z,3.13
2023-04-12T19:31:26.524Z,3.40
2023-04-12T19:33:55.579Z,3.60
2023-04-12T19:36:24.535Z,3.07
2023-04-12T19:38:52.222Z,3.00
2023-04-12T19:41:21.253Z,3.30
2023-04-12T19:43:48.409Z,3.10
2023-04-12T19:46:15.472Z,4.27
2023-04-12T19:48:42.795Z,4.10
2023-04-12T19:51:09.922Z,4.70
2023-04-12T19:53:36.958Z,4.03
2023-04-12T19:56:06.641Z,5.03
2023-04-12T19:58:34.509Z,5.00
2023-04-12T20:01:02.934Z,5.27
2023-04-12T20:03:30.382Z,5.47
2023-04-12T20:05:58.982Z,5.80
2023-04-12T20:08:27.245Z,5.23
2023-04-12T20:10:54.399Z,5.43
2023-04-12T20:13:22.747Z,4.80
2023-04-12T20:15:50.969Z,4.63
2023-04-12T20:18:17.966Z,5.30
2023-04-12T20:20:45.672Z,5.10
2023-04-12T20:23:13.976Z,5.67
2023-04-12T20:25:41.675Z,5.87
2023-04-12T20:28:12.154Z,5.60
2023-04-12T20:30:39.323Z,5.33
2023-04-12T20:33:07.063Z,6.20
2023-04-12T20:35:34.428Z,5.83
2023-04-12T20:38:01.651Z,6.07
2023-04-12T20:40:30.245Z,4.90
2023-04-12T20:42:57.453Z,4.83
2023-04-12T20:45:24.405Z,4.83
2023-04-12T20:47:51.608Z,4.30
2023-04-12T20:50:23.154Z,4.10
2023-04-12T20:52:52.608Z,4.07
2023-04-12T20:55:19.710Z,3.60
2023-04-12T20:57:46.715Z,3.20
2023-04-12T21:00:23.836Z,3.10
2023-04-12T21:02:53.395Z,3.10
2023-04-12T21:05:24.254Z,2.60
2023-04-12T21:07:51.392Z,3.47
2023-04-12T21:10:18.305Z,3.00
2023-04-12T21:12:45.457Z,2.93
2023-04-12T21:15:13.095Z,3.23
2023-04-12T21:17:40.702Z,2.73
2023-04-12T21:20:17.966Z,2.53
2023-04-12T21:22:47.448Z,2.70
2023-04-12T21:25:16.975Z,2.67
2023-04-12T21:27:45.929Z,2.90
2023-04-12T21:30:13.778Z,3.33
2023-04-12T21:32:41.382Z,3.30
2023-04-12T21:35:10.038Z,2.73
2023-04-12T21:37:41.311Z,3.70
2023-04-12T21:40:12.681Z,2.93
2023-04-12T21:42:41.419Z,3.00
2023-04-12T21:45:09.662Z,3.60
2023-04-12T21:47:38.991Z,3.73
2023-04-12T21:50:07.794Z,3.57
2023-04-12T21:52:34.864Z,4.40
2023-04-12T21:55:02.065Z,3.87
2023-04-12T21:57:33.677Z,5.00
2023-04-12T22:00:01.797Z,4.30
2023-04-12T22:02:28.823Z,4.70
2023-04-12T22:04:56.549Z,5.33
2023-04-12T22:07:23.393Z,4.90
2023-04-12T22:09:53.557Z,4.90
2023-04-12T22:12:21.186Z,4.87
2023-04-12T22:14:50.056Z,4.47
2023-04-12T22:17:18.314Z,4.10
2023-04-12T22:19:45.378Z,3.97
2023-04-12T22:22:14.281Z,4.23
2023-04-12T22:24:41.530Z,3.50
2023-04-12T22:27:09.251Z,3.20
2023-04-12T22:29:37.873Z,4.17
2023-04-12T22:32:04.989Z,3.53
2023-04-12T22:34:32.679Z,4.07
2023-04-12T22:36:59.680Z,3.37
2023-04-12T22:39:27.111Z,4.40
2023-04-12T22:41:57.482Z,4.03
2023-04-12T22:44:26.046Z,3.17
2023-04-12T22:46:55.079Z,4.10
2023-04-12T22:49:29.374Z,4.07
2023-04-12T22:51:56.811Z,4.60
2023-04-12T22:54:24.927Z,4.33
2023-04-12T22:56:52.389Z,4.70
2023-04-12T22:59:20.308Z,4.40
2023-04-12T23:01:47.871Z,4.33
2023-04-12T23:04:15.919Z,4.87
2023-04-12T23:06:43.840Z,5.10
2023-04-12T23:09:12.412Z,4.40
2023-04-12T23:11:41.070Z,4.07
2023-04-12T23:14:09.617Z,3.93
2023-04-12T23:16:42.407Z,3.67
2023-04-12T23:19:09.430Z,3.50
2023-04-12T23:21:37.445Z,3.27
2023-04-12T23:24:05.163Z,3.00
2023-04-12T23:26:34.515Z,3.23
2023-04-12T23:29:04.591Z,3.10
2023-04-12T23:31:34.306Z,3.63
2023-04-12T23:34:03.327Z,3.50
2023-04-12T23:36:30.546Z,3.03
2023-04-12T23:39:05.192Z,3.20
2023-04-12T23:41:32.464Z,3.07
2023-04-12T23:44:00.224Z,3.13
2023-04-12T23:46:27.886Z,2.80
2023-04-12T23:48:54.890Z,2.50
2023-04-12T23:51:22.649Z,2.63
2023-04-12T23:53:50.186Z,2.60
2023-04-12T23:56:17.310Z,3.00
2023-04-12T23:58:44.263Z,3.00
